Time;durP1;ratioP1;P1;durP2;ratioP2;P2;SDS_P1;SDS_P2;PMS_P1;PMS_P2;Temp;Humidity;BMP_temperature;BMP_pressure;BME280_temperature;BME280_humidity;BME280_pressure;Samples;Min_cycle;Max_cycle;Signal;HPM_P1;HPM_P2
2023/03/06 00:00:15;;;;;;;;;;;;;;;5.46;83.07;99429.88;5006294;28;20024;-63
2023/03/06 00:02:41;;;;;;;;;;;;;;;5.37;83.14;99434.47;5011567;28;19921;-63
2023/03/06 00:05:06;;;;;;;;;;;;;;;5.31;83.96;99437.22;5017182;28;20036;-63
2023/03/06 00:07:31;;;;;;;;;;;;;;;5.30;84.03;99435.47;5011070;28;19943;-63
2023/03/06 00:09:56;;;;;;;;;;;;;;;5.36;83.77;99432.72;5016923;28;19979;-63
2023/03/06 00:12:22;;;;;;;;;;;;;;;5.36;83.99;99435.38;5031096;28;20391;-63
2023/03/06 00:14:47;;;;;;;;;;;;;;;5.33;84.30;99435.44;5030798;28;19964;-63
2023/03/06 00:17:12;;;;;;;;;;;;;;;5.32;84.45;99427.56;5030084;28;19921;-63
2023/03/06 00:19:38;;;;;;;;;;;;;;;5.32;84.87;99423.13;5012821;28;19920;-63
2023/03/06 00:22:03;;;;;;;;;;;;;;;5.32;84.81;99422.28;5030179;28;19921;-63
2023/03/06 00:24:28;;;;;;;;;;;;;;;5.22;85.78;99423.38;5030387;28;20341;-63
2023/03/06 00:26:54;;;;;;;;;;;;;;;5.30;85.65;99419.66;5030814;28;19921;-63
2023/03/06 00:29:19;;;;;;;;;;;;;;;5.33;85.40;99424.00;5029992;28;20680;-63
2023/03/06 00:31:46;;;;;;;;;;;;;;;5.32;85.49;99422.28;5030552;28;19921;-64
2023/03/06 00:34:12;;;;;;;;;;;;;;;5.33;85.49;99424.91;5029068;28;19920;-63
2023/03/06 00:36:37;;;;;;;;;;;;;;;5.32;85.46;99423.13;5029858;28;19921;-63
2023/03/06 00:39:03;;;;;;;;;;;;;;;5.32;86.43;99422.28;5027423;28;19920;-63
2023/03/06 00:41:28;;;;;;;;;;;;;;;5.31;86.31;99424.06;5024180;28;19929;-63
2023/03/06 00:43:53;;;;;;;;;;;;;;;5.21;86.91;99419.88;5029095;28;20864;-63
2023/03/06 00:46:19;;;;;;;;;;;;;;;5.20;87.58;99420.78;5028750;28;19921;-63
2023/03/06 00:48:44;;;;;;;;;;;;;;;5.19;87.79;99421.66;5011595;28;19924;-63
2023/03/06 00:51:09;;;;;;;;;;;;;;;5.19;88.10;99413.75;5028342;28;19963;-63
2023/03/06 00:53:34;;;;;;;;;;;;;;;5.21;88.54;99413.72;5028139;28;19921;-63
2023/03/06 00:56:00;;;;;;;;;;;;;;;5.24;88.31;99409.25;5029507;28;19923;-63
2023/03/06 00:58:25;;;;;;;;;;;;;;;5.25;88.16;99400.44;5029846;28;19917;-63
2023/03/06 01:00:50;;;;;;;;;;;;;;;5.28;88.83;99397.75;5029654;28;20377;-63
2023/03/06 01:03:16;;;;;;;;;;;;;;;5.28;88.45;99396.88;5027725;28;19925;-63
2023/03/06 01:05:41;;;;;;;;;;;;;;;5.28;88.66;99400.38;5029745;28;19917;-63
2023/03/06 01:08:07;;;;;;;;;;;;;;;5.28;88.26;99395.13;5030165;28;19923;-63
2023/03/06 01:10:32;;;;;;;;;;;;;;;5.25;88.64;99403.06;5029181;28;19925;-63
2023/03/06 01:13:01;;;;;;;;;;;;;;;5.25;87.85;99395.16;5029351;28;19921;-63
2023/03/06 01:15:26;;;;;;;;;;;;;;;5.27;88.26;99393.38;5030284;28;20423;-64
2023/03/06 01:17:53;;;;;;;;;;;;;;;5.24;88.15;99388.16;5029410;28;19917;-63
2023/03/06 01:20:18;;;;;;;;;;;;;;;5.23;87.62;99385.56;5029949;28;19917;-63
2023/03/06 01:22:43;;;;;;;;;;;;;;;5.24;87.65;99388.16;5028933;28;19921;-64
2023/03/06 01:25:09;;;;;;;;;;;;;;;5.25;87.55;99373.22;5029780;28;19913;-63
2023/03/06 01:27:34;;;;;;;;;;;;;;;5.18;87.24;99371.59;5029340;28;19921;-63
2023/03/06 01:30:00;;;;;;;;;;;;;;;5.13;87.41;99368.19;5029967;28;19925;-63
2023/03/06 01:32:25;;;;;;;;;;;;;;;5.12;87.22;99363.84;5029227;28;19921;-63
2023/03/06 01:34:50;;;;;;;;;;;;;;;5.04;87.24;99369.25;5029954;28;19920;-63
2023/03/06 01:37:16;;;;;;;;;;;;;;;5.02;87.22;99363.16;5028752;28;19999;-63
2023/03/06 01:39:41;;;;;;;;;;;;;;;4.99;87.63;99359.72;5029112;28;19917;-63
2023/03/06 01:42:07;;;;;;;;;;;;;;;4.97;87.39;99364.16;5020371;28;19917;-63
2023/03/06 01:44:32;;;;;;;;;;;;;;;4.96;87.91;99360.66;5020701;28;19936;-63
2023/03/06 01:47:01;;;;;;;;;;;;;;;4.93;87.83;99350.16;5029584;28;19917;-63
2023/03/06 01:49:39;;;;;;;;;;;;;;;4.87;87.64;99347.69;5028861;28;19929;-63
2023/03/06 01:52:12;;;;;;;;;;;;;;;4.83;87.99;99340.72;5029234;28;19963;-63
2023/03/06 01:54:43;;;;;;;;;;;;;;;4.82;88.12;99330.22;5029786;28;19916;-63
2023/03/06 01:57:32;;;;;;;;;;;;;;;4.79;88.23;99330.28;5029409;28;19917;-63
2023/03/06 02:00:07;;;;;;;;;;;;;;;4.76;88.39;99339.09;5020192;28;19921;-62
2023/03/06 02:02:32;;;;;;;;;;;;;;;4.76;88.62;99327.72;5028833;28;19963;-63
2023/03/06 02:04:58;;;;;;;;;;;;;;;4.79;88.60;99320.63;5028130;28;19968;-63
2023/03/06 02:07:23;;;;;;;;;;;;;;;4.76;88.79;99314.53;5030008;28;19917;-63
2023/03/06 02:09:49;;;;;;;;;;;;;;;4.75;88.96;99316.31;5032317;28;19948;-63
2023/03/06 02:12:17;;;;;;;;;;;;;;;4.74;88.87;99314.59;5033313;28;19917;-63
2023/03/06 02:14:43;;;;;;;;;;;;;;;4.84;88.64;99310.81;5033016;28;19944;-63
2023/03/06 02:17:09;;;;;;;;;;;;;;;4.87;88.42;99313.44;5014504;28;20261;-63
2023/03/06 02:19:55;;;;;;;;;;;;;;;4.91;88.58;99308.97;5033186;28;19917;-62
2023/03/06 02:22:21;;;;;;;;;;;;;;;4.86;88.92;99303.75;5032273;28;19924;-63
2023/03/06 02:24:50;;;;;;;;;;;;;;;4.88;89.12;99304.59;5033287;28;20381;-62
2023/03/06 02:27:16;;;;;;;;;;;;;;;4.88;89.09;99301.97;5032166;28;20423;-63
2023/03/06 02:29:42;;;;;;;;;;;;;;;4.86;89.42;99300.28;5032603;28;19943;-62
2023/03/06 02:32:08;;;;;;;;;;;;;;;4.91;89.02;99303.69;5032760;28;19917;-62
2023/03/06 02:34:44;;;;;;;;;;;;;;;4.97;89.01;99299.16;5027804;28;19931;-62
2023/03/06 02:37:10;;;;;;;;;;;;;;;4.94;88.86;99298.34;5013015;28;19917;-62
2023/03/06 02:39:39;;;;;;;;;;;;;;;4.92;89.24;99293.13;5015599;28;19971;-63
2023/03/06 02:42:04;;;;;;;;;;;;;;;4.86;88.95;99285.31;5012905;28;19921;-62
2023/03/06 02:44:30;;;;;;;;;;;;;;;4.82;89.28;99288.94;5012953;28;19917;-63
2023/03/06 02:46:55;;;;;;;;;;;;;;;4.81;89.60;99281.06;5020104;28;20004;-62
2023/03/06 02:49:20;;;;;;;;;;;;;;;4.81;90.08;99286.34;4995123;28;19956;-63
2023/03/06 02:51:45;;;;;;;;;;;;;;;4.86;89.90;99276.56;5016835;28;19921;-62
2023/03/06 02:54:11;;;;;;;;;;;;;;;4.83;89.89;99285.41;5032662;28;20417;-62
2023/03/06 02:56:36;;;;;;;;;;;;;;;4.83;90.37;99279.25;5032209;28;19914;-62
2023/03/06 02:59:01;;;;;;;;;;;;;;;4.85;90.68;99282.72;5030840;28;19943;-62
2023/03/06 03:01:27;;;;;;;;;;;;;;;4.86;90.57;99277.41;5032315;28;19923;-62
2023/03/06 03:03:52;;;;;;;;;;;;;;;4.86;90.47;99269.50;5031708;28;20292;-62
2023/03/06 03:06:17;;;;;;;;;;;;;;;4.89;90.53;99261.53;5032218;28;19979;-62
2023/03/06 03:08:42;;;;;;;;;;;;;;;4.88;90.77;99257.19;5032342;28;19917;-62
2023/03/06 03:11:08;;;;;;;;;;;;;;;4.95;90.30;99256.16;5031583;28;19956;-62
2023/03/06 03:13:33;;;;;;;;;;;;;;;4.94;90.21;99253.56;5032223;28;19922;-62
2023/03/06 03:16:03;;;;;;;;;;;;;;;4.96;90.81;99255.25;5030793;28;19917;-62
2023/03/06 03:18:29;;;;;;;;;;;;;;;5.02;90.52;99259.53;5031308;28;19923;-63
2023/03/06 03:20:54;;;;;;;;;;;;;;;5.06;90.33;99261.16;5031081;28;19917;-63
2023/03/06 03:23:20;;;;;;;;;;;;;;;5.05;89.90;99259.44;5031003;28;20078;-63
2023/03/06 03:25:45;;;;;;;;;;;;;;;5.02;90.08;99260.41;5031881;28;20309;-63
2023/03/06 03:28:10;;;;;;;;;;;;;;;5.04;89.94;99257.72;5030902;28;20392;-63
2023/03/06 03:30:37;;;;;;;;;;;;;;;5.08;89.86;99260.25;5031319;28;19921;-63
2023/03/06 03:33:02;;;;;;;;;;;;;;;5.14;89.82;99253.97;5030567;28;19917;-63
2023/03/06 03:35:27;;;;;;;;;;;;;;;5.04;90.01;99253.28;5029708;28;20577;-63
2023/03/06 03:37:54;;;;;;;;;;;;;;;4.97;90.02;99257.00;5019753;28;19918;-63
2023/03/06 03:40:19;;;;;;;;;;;;;;;5.00;90.32;99251.66;5020144;28;19960;-63
2023/03/06 03:42:44;;;;;;;;;;;;;;;5.02;90.81;99249.84;5030640;28;20453;-63
2023/03/06 03:45:10;;;;;;;;;;;;;;;5.03;90.16;99243.66;5030049;28;19971;-63
2023/03/06 03:47:35;;;;;;;;;;;;;;;5.04;90.32;99247.19;5027582;28;19917;-63
2023/03/06 03:50:00;;;;;;;;;;;;;;;5.01;89.97;99248.09;5011608;28;19944;-63
2023/03/06 03:52:26;;;;;;;;;;;;;;;5.00;89.93;99241.09;5020925;28;20012;-62
2023/03/06 03:54:51;;;;;;;;;;;;;;;4.95;90.61;99240.34;5031268;28;19921;-63
2023/03/06 03:57:16;;;;;;;;;;;;;;;4.97;91.22;99237.69;5030606;28;19913;-63
2023/03/06 03:59:41;;;;;;;;;;;;;;;5.00;91.14;99235.84;5031181;28;19921;-63
2023/03/06 04:02:07;;;;;;;;;;;;;;;5.05;91.10;99228.69;5031074;28;19917;-63
2023/03/06 04:04:32;;;;;;;;;;;;;;;5.07;91.23;99232.13;5029961;28;19924;-63
2023/03/06 04:06:57;;;;;;;;;;;;;;;5.11;90.58;99239.09;5030937;28;19925;-63
2023/03/06 04:09:22;;;;;;;;;;;;;;;5.07;90.40;99226.88;5030118;28;19925;-63
2023/03/06 04:11:48;;;;;;;;;;;;;;;5.06;90.95;99224.28;5030610;28;20320;-63
2023/03/06 04:14:13;;;;;;;;;;;;;;;5.07;90.65;99216.31;5031005;28;19956;-62
2023/03/06 04:16:38;;;;;;;;;;;;;;;5.06;90.79;99217.25;5030350;28;20007;-63
2023/03/06 04:19:04;;;;;;;;;;;;;;;4.96;90.66;99207.81;5030934;28;20373;-63
2023/03/06 04:21:29;;;;;;;;;;;;;;;4.97;91.05;99221.88;5030082;28;19983;-63
2023/03/06 04:23:54;;;;;;;;;;;;;;;4.95;91.56;99214.00;5030879;28;19925;-63
2023/03/06 04:26:19;;;;;;;;;;;;;;;5.01;91.55;99221.75;5030991;28;19917;-63
2023/03/06 04:28:45;;;;;;;;;;;;;;;5.08;91.60;99215.44;5029333;28;20355;-63
2023/03/06 04:31:11;;;;;;;;;;;;;;;5.09;91.31;99216.31;5030051;28;19963;-62
2023/03/06 04:33:36;;;;;;;;;;;;;;;5.15;91.10;99224.94;5029793;28;20353;-63
2023/03/06 04:36:01;;;;;;;;;;;;;;;5.18;90.97;99214.31;5013857;28;19921;-63
2023/03/06 04:38:27;;;;;;;;;;;;;;;5.22;90.88;99212.47;5010719;28;19924;-63
2023/03/06 04:40:52;;;;;;;;;;;;;;;5.24;90.89;99224.72;5024497;28;19917;-63
2023/03/06 04:43:17;;;;;;;;;;;;;;;5.22;90.50;99223.88;5030545;28;20008;-63
2023/03/06 04:45:43;;;;;;;;;;;;;;;5.18;90.39;99213.44;5029724;28;19923;-63
2023/03/06 04:48:09;;;;;;;;;;;;;;;5.12;90.64;99209.19;5016274;28;19959;-63
2023/03/06 04:50:36;;;;;;;;;;;;;;;5.09;90.58;99198.72;5010561;28;20397;-63
2023/03/06 04:53:03;;;;;;;;;;;;;;;5.11;90.87;99210.09;5025264;28;19917;-63
2023/03/06 04:55:29;;;;;;;;;;;;;;;5.14;91.31;99212.66;5029975;28;19928;-63
2023/03/06 04:57:54;;;;;;;;;;;;;;;5.17;91.18;99211.72;5029249;28;20349;-64
2023/03/06 05:00:21;;;;;;;;;;;;;;;5.18;91.11;99202.91;5030317;28;20020;-63
2023/03/06 05:02:46;;;;;;;;;;;;;;;5.09;90.83;99188.16;5029899;28;19943;-64
2023/03/06 05:05:12;;;;;;;;;;;;;;;5.13;91.17;99204.78;5028817;28;19917;-63
2023/03/06 05:07:38;;;;;;;;;;;;;;;5.14;91.44;99207.38;5029843;28;19920;-64
2023/03/06 05:10:04;;;;;;;;;;;;;;;5.17;90.84;99186.22;5029096;28;19995;-64
2023/03/06 05:12:29;;;;;;;;;;;;;;;5.15;91.12;99201.22;5021300;28;19961;-64
2023/03/06 05:14:54;;;;;;;;;;;;;;;5.16;90.87;99202.94;5029944;28;20257;-64
2023/03/06 05:17:20;;;;;;;;;;;;;;;5.16;91.19;99209.97;5028843;28;20008;-64
2023/03/06 05:19:45;;;;;;;;;;;;;;;5.17;91.22;99202.03;5028664;28;19921;-63
2023/03/06 05:22:10;;;;;;;;;;;;;;;5.16;91.00;99195.03;5014823;28;19961;-64
2023/03/06 05:24:36;;;;;;;;;;;;;;;5.16;90.97;99202.94;5021219;28;20381;-63
2023/03/06 05:27:01;;;;;;;;;;;;;;;5.16;91.39;99200.31;5029520;28;20059;-63
2023/03/06 05:29:26;;;;;;;;;;;;;;;5.18;90.88;99193.25;5029488;28;19928;-63
2023/03/06 05:31:52;;;;;;;;;;;;;;;5.16;90.70;99192.41;5028977;28;19921;-63
2023/03/06 05:34:17;;;;;;;;;;;;;;;5.15;90.78;99193.31;5029269;28;19917;-63
2023/03/06 05:36:42;;;;;;;;;;;;;;;5.11;90.91;99185.50;5028708;28;19921;-63
2023/03/06 05:39:08;;;;;;;;;;;;;;;5.06;91.44;99182.97;5029786;28;19913;-63
2023/03/06 05:41:33;;;;;;;;;;;;;;;4.99;91.64;99186.66;5028921;28;20055;-63
2023/03/06 05:43:58;;;;;;;;;;;;;;;4.95;92.02;99184.13;5031409;28;19925;-63
2023/03/06 05:46:24;;;;;;;;;;;;;;;4.93;92.69;99185.94;5016811;28;19913;-63
2023/03/06 05:48:51;;;;;;;;;;;;;;;4.95;92.41;99185.00;5033627;28;20030;-63
2023/03/06 05:51:17;;;;;;;;;;;;;;;5.00;92.28;99183.13;5030071;28;19913;-63
2023/03/06 05:53:42;;;;;;;;;;;;;;;5.03;92.42;99190.09;5031946;28;19935;-63
2023/03/06 05:56:08;;;;;;;;;;;;;;;5.04;92.26;99182.16;5033556;28;20367;-63
2023/03/06 05:58:34;;;;;;;;;;;;;;;5.06;91.85;99188.25;5033562;28;20400;-63
2023/03/06 06:01:00;;;;;;;;;;;;;;;5.05;92.28;99183.91;5032291;28;20008;-63
2023/03/06 06:03:25;;;;;;;;;;;;;;;5.05;91.91;99186.53;5032966;28;19925;-63
2023/03/06 06:05:51;;;;;;;;;;;;;;;5.04;92.04;99195.31;5033315;28;20310;-64
2023/03/06 06:08:17;;;;;;;;;;;;;;;5.07;92.31;99191.75;5032648;28;20312;-63
2023/03/06 06:10:42;;;;;;;;;;;;;;;5.06;91.99;99193.53;5033370;28;19932;-64
2023/03/06 06:13:07;;;;;;;;;;;;;;;5.06;91.83;99193.53;5032562;28;19967;-63
2023/03/06 06:15:32;;;;;;;;;;;;;;;5.06;91.42;99196.16;5033197;28;20462;-63
2023/03/06 06:17:58;;;;;;;;;;;;;;;5.07;91.83;99199.66;5033022;28;19963;-63
2023/03/06 06:20:24;;;;;;;;;;;;;;;5.07;91.50;99194.41;5033146;28;19964;-63
2023/03/06 06:22:49;;;;;;;;;;;;;;;5.08;91.55;99202.25;5032639;28;20044;-63
2023/03/06 06:25:14;;;;;;;;;;;;;;;5.08;91.35;99197.00;5032330;28;19917;-63
2023/03/06 06:27:40;;;;;;;;;;;;;;;5.08;91.32;99201.38;5028154;28;19921;-63
2023/03/06 06:30:06;;;;;;;;;;;;;;;5.04;91.66;99199.75;5013802;28;19968;-64
2023/03/06 06:32:31;;;;;;;;;;;;;;;5.06;91.76;99209.34;5030435;28;20309;-64
2023/03/06 06:34:56;;;;;;;;;;;;;;;5.08;91.73;99207.53;5027419;28;19983;-63
2023/03/06 06:37:22;;;;;;;;;;;;;;;5.09;91.49;99209.25;5032752;28;19971;-63
2023/03/06 06:39:47;;;;;;;;;;;;;;;5.11;91.49;99204.81;5032844;28;19916;-63
2023/03/06 06:42:12;;;;;;;;;;;;;;;5.15;91.38;99211.78;5032022;28;19921;-63
2023/03/06 06:44:37;;;;;;;;;;;;;;;5.15;91.22;99209.13;5012927;28;19943;-63
2023/03/06 06:47:03;;;;;;;;;;;;;;;5.09;91.49;99213.69;5010570;28;19913;-63
2023/03/06 06:49:29;;;;;;;;;;;;;;;5.09;91.77;99219.78;5030283;28;19987;-64
2023/03/06 06:51:54;;;;;;;;;;;;;;;5.06;91.61;99225.16;5031549;28;19921;-63
2023/03/06 06:54:21;;;;;;;;;;;;;;;5.05;91.78;99228.69;5030244;28;19955;-62
2023/03/06 06:56:46;;;;;;;;;;;;;;;5.03;91.68;99233.13;5031614;28;19917;-64
2023/03/06 06:59:11;;;;;;;;;;;;;;;5.07;91.89;99228.66;5032451;28;19917;-63
2023/03/06 07:01:36;;;;;;;;;;;;;;;5.08;92.02;99228.63;5031411;28;19947;-64
2023/03/06 07:04:02;;;;;;;;;;;;;;;5.08;91.81;99236.53;5032095;28;19939;-63
2023/03/06 07:06:27;;;;;;;;;;;;;;;5.11;92.25;99235.56;5032357;28;19940;-64
2023/03/06 07:08:52;;;;;;;;;;;;;;;5.13;92.10;99232.00;5032220;28;19921;-63
2023/03/06 07:11:18;;;;;;;;;;;;;;;5.10;91.95;99237.38;5031489;28;20380;-64
2023/03/06 07:13:43;;;;;;;;;;;;;;;5.12;92.20;99238.16;5032217;28;19962;-63
2023/03/06 07:16:09;;;;;;;;;;;;;;;5.19;92.20;99244.16;5021706;28;19921;-63
2023/03/06 07:18:34;;;;;;;;;;;;;;;5.18;91.78;99242.44;5012241;28;19928;-63
2023/03/06 07:20:59;;;;;;;;;;;;;;;5.19;91.69;99246.78;5018596;28;19917;-63
2023/03/06 07:23:25;;;;;;;;;;;;;;;5.20;91.76;99244.16;5032118;28;20465;-63
2023/03/06 07:25:51;;;;;;;;;;;;;;;5.19;91.92;99242.41;5031202;28;19917;-63
2023/03/06 07:28:16;;;;;;;;;;;;;;;5.24;91.70;99251.06;5030392;28;20297;-63
2023/03/06 07:30:42;;;;;;;;;;;;;;;5.29;91.64;99253.59;5024708;28;19936;-63
2023/03/06 07:33:07;;;;;;;;;;;;;;;5.29;92.05;99243.91;5018475;28;19972;-63
2023/03/06 07:35:32;;;;;;;;;;;;;;;5.31;91.82;99241.25;5031132;28;19917;-62
2023/03/06 07:37:58;;;;;;;;;;;;;;;5.32;91.69;99238.56;5030658;28;19924;-63
2023/03/06 07:40:24;;;;;;;;;;;;;;;5.34;91.61;99241.16;5029791;28;20415;-63
2023/03/06 07:42:51;;;;;;;;;;;;;;;5.38;91.67;99249.00;5029491;28;19917;-63
2023/03/06 07:45:16;;;;;;;;;;;;;;;5.40;91.79;99249.78;5020489;28;20433;-63
2023/03/06 07:47:42;;;;;;;;;;;;;;;5.47;91.94;99249.66;5031462;28;19924;-63
2023/03/06 07:50:08;;;;;;;;;;;;;;;5.43;91.29;99234.81;5030825;28;19938;-63
2023/03/06 07:52:33;;;;;;;;;;;;;;;5.43;91.73;99255.91;5030445;28;19921;-63
2023/03/06 07:54:58;;;;;;;;;;;;;;;5.44;91.34;99239.19;5030850;28;19913;-63
2023/03/06 07:57:24;;;;;;;;;;;;;;;5.47;91.32;99247.03;5031567;28;19920;-63
2023/03/06 07:59:49;;;;;;;;;;;;;;;5.48;91.79;99243.47;5030339;28;19917;-63
2023/03/06 08:02:15;;;;;;;;;;;;;;;5.47;91.93;99247.03;5016893;28;19917;-63
2023/03/06 08:04:41;;;;;;;;;;;;;;;5.48;92.05;99248.75;5030780;28;19917;-63
2023/03/06 08:07:06;;;;;;;;;;;;;;;5.54;91.95;99252.09;5029300;28;19917;-63
2023/03/06 08:09:33;;;;;;;;;;;;;;;5.55;91.97;99247.72;5031065;28;20292;-63
2023/03/06 08:11:58;;;;;;;;;;;;;;;5.52;92.22;99255.69;5030460;28;19921;-63
2023/03/06 08:14:23;;;;;;;;;;;;;;;5.52;92.11;99256.53;5031143;28;19924;-63
2023/03/06 08:16:50;;;;;;;;;;;;;;;5.56;92.05;99246.78;5030847;28;19972;-63
2023/03/06 08:19:15;;;;;;;;;;;;;;;5.56;92.52;99252.06;5030004;28;19925;-63
2023/03/06 08:21:40;;;;;;;;;;;;;;;5.60;92.64;99251.09;5028875;28;20364;-63
2023/03/06 08:24:06;;;;;;;;;;;;;;;5.54;92.52;99254.75;5017672;28;19917;-63
2023/03/06 08:26:31;;;;;;;;;;;;;;;5.54;92.72;99253.88;5030749;28;20512;-63
2023/03/06 08:28:57;;;;;;;;;;;;;;;5.54;92.00;99248.59;5030576;28;20335;-63
2023/03/06 08:31:23;;;;;;;;;;;;;;;5.47;92.41;99247.03;5012405;28;19960;-63
2023/03/06 08:33:48;;;;;;;;;;;;;;;5.47;93.01;99247.03;5028166;28;19952;-63
2023/03/06 08:36:13;;;;;;;;;;;;;;;5.50;92.75;99246.94;5029700;28;19917;-63
2023/03/06 08:38:38;;;;;;;;;;;;;;;5.54;92.31;99253.88;5028319;28;20630;-63
2023/03/06 08:41:04;;;;;;;;;;;;;;;5.59;92.61;99255.50;5028992;28;19955;-63
2023/03/06 08:43:29;;;;;;;;;;;;;;;5.68;92.44;99257.03;5027861;28;19963;-63
2023/03/06 08:45:55;;;;;;;;;;;;;;;5.69;91.99;99256.13;5028990;28;20003;-63
2023/03/06 08:48:20;;;;;;;;;;;;;;;5.77;91.72;99262.94;5029562;28;19919;-63
2023/03/06 08:50:46;;;;;;;;;;;;;;;5.86;91.94;99259.25;5029114;28;19925;-63
2023/03/06 08:53:11;;;;;;;;;;;;;;;5.92;90.81;99261.72;5030213;28;19935;-63
2023/03/06 08:55:36;;;;;;;;;;;;;;;5.97;90.15;99262.47;5014042;28;20352;-63
2023/03/06 08:58:03;;;;;;;;;;;;;;;6.04;90.53;99266.69;5025362;28;19924;-63
2023/03/06 09:00:28;;;;;;;;;;;;;;;6.09;90.25;99262.16;5028730;28;19925;-64
2023/03/06 09:02:53;;;;;;;;;;;;;;;6.17;89.30;99254.88;5029654;28;19920;-63
2023/03/06 09:05:19;;;;;;;;;;;;;;;6.17;89.65;99268.09;5019947;28;19964;-63
2023/03/06 09:07:44;;;;;;;;;;;;;;;6.24;88.58;99269.66;5029658;28;20073;-63
2023/03/06 09:10:12;;;;;;;;;;;;;;;6.28;88.49;99266.00;5028882;28;19925;-64
2023/03/06 09:12:37;;;;;;;;;;;;;;;6.27;88.27;99274.84;5029907;28;20328;-63
2023/03/06 09:15:03;;;;;;;;;;;;;;;6.35;88.21;99273.75;5029871;28;19923;-63
2023/03/06 09:17:28;;;;;;;;;;;;;;;6.37;87.59;99271.94;5029866;28;19921;-64
2023/03/06 09:19:54;;;;;;;;;;;;;;;6.36;87.69;99270.19;5029068;28;19956;-64
2023/03/06 09:22:19;;;;;;;;;;;;;;;6.45;87.53;99267.31;5029966;28;20357;-64
2023/03/06 09:24:44;;;;;;;;;;;;;;;6.43;87.52;99274.41;5029447;28;19942;-64
2023/03/06 09:27:09;;;;;;;;;;;;;;;6.47;87.90;99268.09;5029812;28;19917;-63
2023/03/06 09:29:35;;;;;;;;;;;;;;;6.59;88.02;99273.03;5029449;28;19925;-64
2023/03/06 09:32:00;;;;;;;;;;;;;;;6.64;87.05;99278.19;5029159;28;19917;-64
2023/03/06 09:34:26;;;;;;;;;;;;;;;6.72;86.01;99278.00;5028911;28;19933;-63
2023/03/06 09:36:51;;;;;;;;;;;;;;;6.74;85.66;99271.72;5028829;28;20427;-63
2023/03/06 09:39:17;;;;;;;;;;;;;;;6.86;85.32;99273.16;5024775;28;19917;-64
2023/03/06 09:41:43;;;;;;;;;;;;;;;6.95;84.30;99271.13;5028796;28;19925;-64
2023/03/06 09:44:17;;;;;;;;;;;;;;;6.94;82.35;99269.38;5012241;28;19913;-63
2023/03/06 09:46:45;;;;;;;;;;;;;;;6.92;81.80;99270.34;5028653;28;19986;-63
2023/03/06 09:49:16;;;;;;;;;;;;;;;6.98;82.73;99273.66;5022790;28;19921;-63
2023/03/06 09:52:00;;;;;;;;;;;;;;;7.04;82.11;99278.75;5010121;28;19963;-63
2023/03/06 09:54:33;;;;;;;;;;;;;;;7.13;80.96;99278.50;5010326;28;20327;-64
2023/03/06 09:56:58;;;;;;;;;;;;;;;7.14;81.21;99276.69;5029374;28;19917;-63
2023/03/06 09:59:25;;;;;;;;;;;;;;;7.07;79.71;99273.38;5029322;28;20107;-63
2023/03/06 10:01:57;;;;;;;;;;;;;;;7.19;80.12;99280.94;5028333;28;19921;-64
2023/03/06 10:04:40;;;;;;;;;;;;;;;7.28;80.67;99279.81;5029021;28;19964;-64
2023/03/06 10:07:13;;;;;;;;;;;;;;;7.31;79.64;99280.56;5029276;28;19944;-63
2023/03/06 10:09:46;;;;;;;;;;;;;;;7.34;79.73;99275.19;5029191;28;19925;-63
2023/03/06 10:12:23;;;;;;;;;;;;;;;7.36;79.23;99273.38;5029536;28;19951;-64
2023/03/06 10:15:00;;;;;;;;;;;;;;;7.53;79.77;99286.03;5023966;28;19921;-64
2023/03/06 10:17:30;;;;;;;;;;;;;;;7.49;78.69;99285.28;5009533;28;20353;-64
2023/03/06 10:19:55;;;;;;;;;;;;;;;7.57;78.28;99287.69;5015686;28;19917;-64
2023/03/06 10:22:20;;;;;;;;;;;;;;;7.62;78.16;99278.69;5029135;28;20023;-64
2023/03/06 10:24:54;;;;;;;;;;;;;;;7.68;77.56;99275.81;5029206;28;19924;-64
2023/03/06 10:27:25;;;;;;;;;;;;;;;7.74;77.10;99277.41;5028207;28;19928;-64
2023/03/06 10:30:09;;;;;;;;;;;;;;;7.73;76.62;99263.31;5032307;28;19987;-64
2023/03/06 10:32:47;;;;;;;;;;;;;;;7.80;76.50;99269.25;5032118;28;19967;-64
2023/03/06 10:35:24;;;;;;;;;;;;;;;7.95;76.21;99266.09;5032800;28;20016;-64
2023/03/06 10:37:50;;;;;;;;;;;;;;;8.00;74.90;99262.38;5014162;28;19933;-64
2023/03/06 10:40:18;;;;;;;;;;;;;;;8.07;75.64;99263.03;5032589;28;20006;-64
2023/03/06 10:42:43;;;;;;;;;;;;;;;8.07;75.29;99252.44;5032620;28;19924;-64
2023/03/06 10:45:13;;;;;;;;;;;;;;;8.04;74.39;99253.41;5031910;28;20324;-64
2023/03/06 10:47:39;;;;;;;;;;;;;;;8.16;74.30;99251.25;4995284;28;19922;-64
2023/03/06 10:50:17;;;;;;;;;;;;;;;8.33;73.57;99259.50;5012732;28;20297;-64
2023/03/06 10:52:42;;;;;;;;;;;;;;;8.39;72.79;99256.63;5023166;28;19917;-64
2023/03/06 10:55:27;;;;;;;;;;;;;;;8.28;68.08;99256.16;5032572;28;20423;-64
2023/03/06 10:57:53;;;;;;;;;;;;;;;8.25;66.66;99253.63;5023909;28;19964;-64
2023/03/06 11:00:24;;;;;;;;;;;;;;;8.21;66.81;99259.88;5028089;28;19953;-63
2023/03/06 11:03:16;;;;;;;;;;;;;;;8.19;66.60;99256.44;5012585;28;19917;-64
2023/03/06 11:05:59;;;;;;;;;;;;;;;8.29;66.78;99252.56;5028369;28;20040;-63
2023/03/06 11:08:25;;;;;;;;;;;;;;;8.45;66.54;99257.25;5032350;28;20060;-64
2023/03/06 11:11:00;;;;;;;;;;;;;;;8.47;64.44;99257.19;5032028;28;20468;-64
2023/03/06 11:13:27;;;;;;;;;;;;;;;8.66;64.16;99245.91;5030102;28;20331;-64
2023/03/06 11:16:00;;;;;;;;;;;;;;;8.79;63.99;99249.81;5031078;28;19917;-64
2023/03/06 11:18:48;;;;;;;;;;;;;;;8.99;64.28;99246.41;5030584;28;19921;-64
2023/03/06 11:21:27;;;;;;;;;;;;;;;9.02;61.91;99248.94;5010585;28;20317;-64
2023/03/06 11:23:54;;;;;;;;;;;;;;;8.94;60.91;99249.25;5011453;28;19982;-64
2023/03/06 11:26:25;;;;;;;;;;;;;;;9.08;61.86;99248.69;5028604;28;20007;-64
2023/03/06 11:29:14;;;;;;;;;;;;;;;8.95;60.55;99244.78;5031623;28;19925;-64
2023/03/06 11:32:02;;;;;;;;;;;;;;;8.71;60.49;99248.38;5020867;28;19920;-64
2023/03/06 11:34:46;;;;;;;;;;;;;;;8.62;60.38;99243.41;5030625;28;20035;-64
2023/03/06 11:37:16;;;;;;;;;;;;;;;8.53;61.67;99241.09;5031384;28;19913;-64
2023/03/06 11:39:48;;;;;;;;;;;;;;;8.43;60.78;99240.59;5030307;28;20396;-64
2023/03/06 11:42:17;;;;;;;;;;;;;;;8.50;61.37;99235.91;5024081;28;19936;-64
2023/03/06 11:44:48;;;;;;;;;;;;;;;8.66;62.16;99235.31;5011816;28;20003;-64
2023/03/06 11:47:35;;;;;;;;;;;;;;;8.71;60.43;99235.13;5028228;28;19921;-64
2023/03/06 11:50:00;;;;;;;;;;;;;;;8.74;60.75;99232.34;5021330;28;19921;-64
2023/03/06 11:52:32;;;;;;;;;;;;;;;8.76;59.86;99227.84;5013023;28;19917;-64
2023/03/06 11:54:58;;;;;;;;;;;;;;;8.81;59.33;99226.75;5031624;28;19974;-64
2023/03/06 11:57:29;;;;;;;;;;;;;;;8.85;59.39;99232.78;5031414;28;19917;-64
2023/03/06 12:00:01;;;;;;;;;;;;;;;8.64;58.13;99225.66;5030092;28;19928;-64
2023/03/06 12:02:45;;;;;;;;;;;;;;;8.72;58.45;99228.88;5031154;28;19917;-64
2023/03/06 12:05:28;;;;;;;;;;;;;;;8.63;58.46;99221.28;5027679;28;20670;-64
2023/03/06 12:08:02;;;;;;;;;;;;;;;8.70;59.74;99212.16;5031056;28;19917;-64
2023/03/06 12:10:37;;;;;;;;;;;;;;;8.78;58.79;99218.91;5030403;28;20016;-64
2023/03/06 12:13:18;;;;;;;;;;;;;;;8.83;58.71;99213.44;5030017;28;20360;-64
2023/03/06 12:15:58;;;;;;;;;;;;;;;8.86;58.71;99214.16;5029400;28;19972;-64
2023/03/06 12:18:41;;;;;;;;;;;;;;;8.90;58.60;99209.63;5029921;28;19963;-64
2023/03/06 12:21:14;;;;;;;;;;;;;;;8.82;59.30;99206.41;5028520;28;19932;-64
2023/03/06 12:23:49;;;;;;;;;;;;;;;8.68;58.83;99203.44;5029518;28;20340;-64
2023/03/06 12:26:31;;;;;;;;;;;;;;;8.65;58.82;99203.53;5029345;28;19976;-64
2023/03/06 12:29:15;;;;;;;;;;;;;;;8.67;59.50;99189.28;5028429;28;20387;-64
2023/03/06 12:31:59;;;;;;;;;;;;;;;8.67;59.94;99191.94;5012198;28;19917;-65
2023/03/06 12:34:39;;;;;;;;;;;;;;;8.66;59.51;99192.00;5029021;28;19957;-64
2023/03/06 12:37:16;;;;;;;;;;;;;;;8.71;59.58;99193.56;5029845;28;19924;-64
2023/03/06 12:39:51;;;;;;;;;;;;;;;8.66;59.32;99184.06;5027795;28;19918;-64
2023/03/06 12:42:22;;;;;;;;;;;;;;;8.59;59.80;99187.84;5020846;28;20404;-64
2023/03/06 12:44:48;;;;;;;;;;;;;;;8.52;60.25;99189.00;5029372;28;19920;-64
2023/03/06 12:47:19;;;;;;;;;;;;;;;8.49;60.23;99175.88;5028866;28;19928;-64
2023/03/06 12:49:47;;;;;;;;;;;;;;;8.43;59.61;99181.41;5029270;28;20309;-64
2023/03/06 12:52:21;;;;;;;;;;;;;;;8.40;60.00;99173.56;5029212;28;19913;-64
2023/03/06 12:54:47;;;;;;;;;;;;;;;8.40;60.79;99181.53;4994043;28;19926;-64
2023/03/06 12:57:13;;;;;;;;;;;;;;;8.37;60.83;99171.88;5027314;28;19913;-63
2023/03/06 12:59:46;;;;;;;;;;;;;;;8.43;60.86;99176.09;5028605;28;19928;-64